Time;durP1;ratioP1;P1;durP2;ratioP2;P2;SDS_P1;SDS_P2;PMS_P1;PMS_P2;Temp;Humidity;BMP_temperature;BMP_pressure;BME280_temperature;BME280_humidity;BME280_pressure;Samples;Min_cycle;Max_cycle;Signal;HPM_P1;HPM_P2
2023/12/31 00:00:00;;;;;;;5.25;3.50;;;;;;;7.44;77.37;97856.53;4939119;28;20122;-72
2023/12/31 00:02:26;;;;;;;4.18;3.47;;;;;;;7.47;78.04;97863.25;4943113;28;20038;-73
2023/12/31 00:04:51;;;;;;;4.70;3.00;;;;;;;7.32;77.93;97846.84;4945089;28;20039;-72
2023/12/31 00:07:17;;;;;;;4.35;3.28;;;;;;;7.30;77.19;97843.59;4928700;28;20109;-74
2023/12/31 00:09:42;;;;;;;4.63;3.50;;;;;;;7.28;77.49;97845.69;4944479;28;20034;-75
2023/12/31 00:12:08;;;;;;;7.25;3.72;;;;;;;7.18;77.42;97840.06;4946494;28;20496;-72
2023/12/31 00:14:33;;;;;;;3.90;3.33;;;;;;;7.25;77.75;97851.50;4924102;29;20418;-73
2023/12/31 00:16:59;;;;;;;4.93;3.17;;;;;;;7.07;77.52;97822.13;4956271;28;20023;-72
2023/12/31 00:19:25;;;;;;;4.97;3.15;;;;;;;7.07;77.74;97828.28;4953651;28;20040;-73
2023/12/31 00:21:50;;;;;;;5.90;3.40;;;;;;;7.05;77.95;97829.59;4962017;28;20081;-72
2023/12/31 00:24:16;;;;;;;5.85;3.60;;;;;;;6.92;78.15;97809.19;4946833;28;20039;-73
2023/12/31 00:26:41;;;;;;;5.97;3.90;;;;;;;7.00;77.80;97818.75;4929962;29;20023;-72
2023/12/31 00:29:10;;;;;;;7.03;3.55;;;;;;;7.00;78.80;97816.06;4946379;28;20117;-73
2023/12/31 00:31:37;;;;;;;5.57;3.60;;;;;;;6.91;78.40;97807.56;4945972;29;20106;-74
2023/12/31 00:34:02;;;;;;;5.25;3.42;;;;;;;6.76;78.59;97791.94;4927366;28;20451;-73
2023/12/31 00:36:31;;;;;;;6.25;3.45;;;;;;;6.82;78.29;97803.56;4955656;28;20034;-74
2023/12/31 00:38:56;;;;;;;5.47;3.85;;;;;;;6.81;79.10;97802.75;4951492;28;20495;-72
2023/12/31 00:41:22;;;;;;;6.72;3.65;;;;;;;6.83;78.66;97808.72;4954571;28;20504;-73
2023/12/31 00:43:47;;;;;;;6.57;3.97;;;;;;;6.79;78.45;97804.84;4959862;28;20038;-74
2023/12/31 00:46:13;;;;;;;7.60;3.97;;;;;;;6.84;79.68;97801.47;4947986;28;20026;-74
2023/12/31 00:48:39;;;;;;;5.90;4.35;;;;;;;6.79;79.33;97804.84;4932401;28;20081;-73
2023/12/31 00:51:04;;;;;;;4.70;4.07;;;;;;;6.64;78.98;97772.38;4918558;29;20448;-73
2023/12/31 00:53:30;;;;;;;4.63;3.70;;;;;;;6.68;79.11;97776.22;4957715;28;20081;-72
2023/12/31 00:55:55;;;;;;;7.10;4.00;;;;;;;6.62;78.85;97770.97;4946840;29;20027;-72
2023/12/31 00:58:21;;;;;;;6.53;3.80;;;;;;;6.74;79.93;97780.66;4932159;29;20464;-73
2023/12/31 01:00:47;;;;;;;4.32;3.90;;;;;;;6.60;78.81;97763.19;4946883;28;20119;-72
2023/12/31 01:03:12;;;;;;;5.28;4.03;;;;;;;6.69;80.13;97788.56;4939114;28;20033;-72
2023/12/31 01:05:38;;;;;;;4.75;3.78;;;;;;;6.71;79.71;97797.19;4949894;29;20101;-72
2023/12/31 01:08:04;;;;;;;5.80;4.25;;;;;;;6.60;79.36;97765.88;4969227;28;20541;-71
2023/12/31 01:10:29;;;;;;;4.63;3.72;;;;;;;6.67;80.01;97774.59;4961915;28;20032;-71
2023/12/31 01:12:55;;;;;;;4.85;4.00;;;;;;;6.56;79.58;97762.00;4916898;29;20039;-73
2023/12/31 01:15:22;;;;;;;5.10;3.88;;;;;;;6.70;79.05;97784.81;4944436;29;20030;-72
2023/12/31 01:17:48;;;;;;;4.63;3.88;;;;;;;6.61;79.53;97770.16;4952524;29;20039;-72
2023/12/31 01:20:14;;;;;;;4.50;3.95;;;;;;;6.70;80.11;97775.97;4955500;28;20027;-73
2023/12/31 01:22:40;;;;;;;5.05;3.78;;;;;;;6.59;80.36;97766.91;4965192;28;20039;-73
2023/12/31 01:25:05;;;;;;;5.20;3.78;;;;;;;6.61;79.45;97770.16;4923839;28;20045;-72
2023/12/31 01:27:31;;;;;;;6.28;4.28;;;;;;;6.57;79.37;97766.31;4940959;29;20128;-73
2023/12/31 01:29:56;;;;;;;4.35;3.90;;;;;;;6.59;80.13;97764.22;4954342;28;20074;-73
2023/12/31 01:32:22;;;;;;;4.45;4.00;;;;;;;6.52;79.92;97751.97;4948716;29;20043;-73
2023/12/31 01:34:47;;;;;;;5.55;3.80;;;;;;;6.67;80.12;97763.91;4959384;28;20027;-72
2023/12/31 01:37:13;;;;;;;5.57;3.92;;;;;;;6.64;80.83;97759.00;4932913;29;20118;-73
2023/12/31 01:39:38;;;;;;;4.80;4.30;;;;;;;6.61;79.33;97767.47;4945247;29;20023;-73
2023/12/31 01:42:04;;;;;;;4.50;4.10;;;;;;;6.60;80.25;97752.50;4958401;28;20035;-73
2023/12/31 01:44:29;;;;;;;4.68;3.72;;;;;;;6.59;79.96;97750.84;4965163;28;20027;-73
2023/12/31 01:46:55;;;;;;;4.30;3.90;;;;;;;6.54;80.29;97739.19;4924263;29;20046;-71
2023/12/31 01:49:21;;;;;;;5.20;3.72;;;;;;;6.54;79.97;97736.53;4963819;28;20051;-70
2023/12/31 01:51:47;;;;;;;5.85;4.03;;;;;;;6.49;79.59;97729.19;4954781;28;20451;-71
2023/12/31 01:54:13;;;;;;;4.25;3.85;;;;;;;6.47;79.97;97725.94;4950543;28;20435;-71
2023/12/31 01:56:39;;;;;;;5.88;4.00;;;;;;;6.56;80.42;97734.47;4955742;29;20122;-71
2023/12/31 01:59:06;;;;;;;4.35;3.70;;;;;;;6.46;80.16;97721.66;4968079;28;20093;-71
2023/12/31 02:01:33;;;;;;;5.28;4.15;;;;;;;6.46;80.21;97716.28;4947849;29;20583;-72
2023/12/31 02:04:00;;;;;;;5.10;4.10;;;;;;;6.44;80.25;97729.06;4947917;28;20087;-71
2023/12/31 02:06:26;;;;;;;6.90;4.28;;;;;;;6.17;80.47;97680.53;4962651;28;20499;-71
2023/12/31 02:08:51;;;;;;;5.22;4.10;;;;;;;6.20;80.12;97692.63;4961665;28;20031;-70
2023/12/31 02:11:17;;;;;;;5.35;3.72;;;;;;;6.23;79.37;97692.97;4946570;29;20043;-71
2023/12/31 02:13:43;;;;;;;4.30;3.90;;;;;;;6.16;80.55;97686.91;4959509;28;20051;-71
2023/12/31 02:16:13;;;;;;;4.60;3.72;;;;;;;6.25;80.39;97690.88;4957493;28;20030;-70
2023/12/31 02:18:38;;;;;;;5.75;4.10;;;;;;;6.24;79.82;97694.63;4953814;29;20050;-70
2023/12/31 02:21:05;;;;;;;5.50;4.07;;;;;;;6.28;80.20;97689.59;4972999;28;20085;-71
2023/12/31 02:23:32;;;;;;;4.22;3.58;;;;;;;6.16;80.80;97665.53;4940901;29;20514;-70
2023/12/31 02:26:08;;;;;;;5.07;4.07;;;;;;;6.28;80.32;97687.75;4966023;28;20109;-70
2023/12/31 02:28:33;;;;;;;;;;;;;;;5.99;80.91;97685.13;4937538;29;20392;-70
2023/12/31 02:30:59;;;;;;;3.87;3.47;;;;;;;6.18;81.02;97678.69;4948220;28;20303;-70
2023/12/31 02:33:24;;;;;;;4.50;3.60;;;;;;;6.22;81.34;97669.16;4966728;28;20039;-71
2023/12/31 02:35:49;;;;;;;4.53;4.00;;;;;;;6.20;80.66;97677.41;4949864;28;20033;-70
2023/12/31 02:38:15;;;;;;;4.80;4.30;;;;;;;6.16;80.50;97656.72;4939360;28;20042;-70
2023/12/31 02:40:40;;;;;;;4.57;3.70;;;;;;;6.18;80.87;97668.00;4936515;28;20122;-71
2023/12/31 02:43:06;;;;;;;5.45;4.05;;;;;;;6.12;81.18;97671.56;4951120;28;20044;-72
2023/12/31 02:45:31;;;;;;;4.25;3.83;;;;;;;6.08;80.60;97668.53;4928983;28;20093;-73
2023/12/31 02:47:57;;;;;;;6.00;3.97;;;;;;;6.08;81.30;97668.53;4946492;28;20087;-72
2023/12/31 02:50:23;;;;;;;5.03;3.55;;;;;;;6.02;80.98;97660.63;4959886;28;20031;-72
2023/12/31 02:52:48;;;;;;;4.30;3.90;;;;;;;5.98;81.08;97656.75;4940308;28;20031;-72
2023/12/31 02:55:15;;;;;;;5.13;3.92;;;;;;;5.94;81.08;97658.25;4966186;28;20023;-71
2023/12/31 02:57:40;;;;;;;4.80;4.35;;;;;;;5.82;80.83;97630.66;4955588;28;20090;-71
2023/12/31 03:00:06;;;;;;;4.70;3.75;;;;;;;5.83;81.09;97633.13;4968489;28;20031;-72
2023/12/31 03:02:32;;;;;;;4.53;3.80;;;;;;;5.90;81.15;97641.06;4955995;23;20079;-72
2023/12/31 03:04:57;;;;;;;4.68;4.18;;;;;;;5.89;81.32;97632.22;4939132;29;20039;-72
2023/12/31 03:07:22;;;;;;;4.38;3.85;;;;;;;5.92;81.92;97628.28;4941275;29;20039;-72
2023/12/31 03:09:48;;;;;;;5.03;4.10;;;;;;;5.93;82.16;97632.56;4959202;28;20490;-73
2023/12/31 03:12:13;;;;;;;6.68;4.82;;;;;;;5.86;81.77;97618.53;4944380;28;20043;-72
2023/12/31 03:14:38;;;;;;;4.55;4.15;;;;;;;6.00;81.95;97617.25;4944675;28;20094;-72
2023/12/31 03:17:04;;;;;;;4.47;4.00;;;;;;;5.95;81.84;97614.47;4933004;29;20114;-73
2023/12/31 03:19:35;;;;;;;7.13;4.53;;;;;;;6.09;81.98;97626.59;4921718;29;20110;-73
2023/12/31 03:22:00;;;;;;;4.85;4.18;;;;;;;5.99;82.22;97605.78;4937137;29;20043;-73
2023/12/31 03:24:27;;;;;;;4.97;4.38;;;;;;;6.06;82.52;97611.81;4921068;29;20050;-73
2023/12/31 03:26:52;;;;;;;7.20;4.90;;;;;;;6.01;82.39;97586.81;4952486;29;20043;-73
2023/12/31 03:29:19;;;;;;;4.40;4.00;;;;;;;6.14;81.89;97591.94;4914566;29;20019;-72
2023/12/31 03:31:44;;;;;;;5.70;4.22;;;;;;;6.14;82.00;97591.94;4945993;29;20044;-71
2023/12/31 03:34:10;;;;;;;5.30;4.35;;;;;;;6.17;82.27;97583.47;4919724;29;20063;-71
2023/12/31 03:36:35;;;;;;;5.72;4.35;;;;;;;6.15;82.10;97572.19;4945863;29;20087;-71
2023/12/31 03:39:01;;;;;;;4.50;4.07;;;;;;;6.20;82.27;97567.78;4917922;29;20106;-71
2023/12/31 03:41:26;;;;;;;4.70;4.20;;;;;;;6.23;81.83;97567.31;4927956;29;20476;-71
2023/12/31 03:43:52;;;;;;;5.78;4.18;;;;;;;6.09;81.91;97549.09;4928392;29;20023;-71
2023/12/31 03:46:17;;;;;;;5.80;4.50;;;;;;;6.21;82.51;97565.91;4936582;29;20050;-71
2023/12/31 03:48:43;;;;;;;5.22;4.40;;;;;;;6.14;82.07;97552.66;4936885;29;20033;-71
2023/12/31 03:51:09;;;;;;;7.28;4.35;;;;;;;6.20;82.17;97558.97;4935596;29;20066;-73
2023/12/31 03:53:35;;;;;;;5.22;4.28;;;;;;;6.21;81.40;97555.22;4920615;29;20047;-73
2023/12/31 03:56:00;;;;;;;4.60;4.20;;;;;;;6.12;82.37;97545.91;4927344;29;20085;-74
2023/12/31 03:58:25;;;;;;;5.30;4.40;;;;;;;6.07;81.66;97537.78;4920816;29;20463;-74
2023/12/31 04:00:51;;;;;;;5.40;4.53;;;;;;;6.12;81.69;97538.72;4950680;29;20043;-73
2023/12/31 04:03:16;;;;;;;4.68;4.18;;;;;;;6.18;81.55;97551.16;4951967;28;20594;-72
2023/12/31 04:05:42;;;;;;;4.47;4.07;;;;;;;6.18;81.45;97542.34;4943674;28;20518;-72
2023/12/31 04:08:07;;;;;;;5.60;4.00;;;;;;;6.09;81.40;97525.81;4934069;29;20111;-73
2023/12/31 04:10:33;;;;;;;6.05;4.30;;;;;;;6.12;80.98;97517.34;4924123;29;20031;-73
2023/12/31 04:12:58;;;;;;;5.75;4.13;;;;;;;6.21;81.26;97533.84;4918202;29;20031;-72
2023/12/31 04:15:23;;;;;;;5.88;4.40;;;;;;;6.21;81.42;97533.84;4948825;29;20050;-73
2023/12/31 04:17:49;;;;;;;5.72;4.30;;;;;;;6.17;80.93;97524.66;4920600;29;20027;-73
2023/12/31 04:20:14;;;;;;;5.63;4.85;;;;;;;6.25;80.52;97529.66;4917237;29;20492;-73
2023/12/31 04:22:40;;;;;;;7.68;5.38;;;;;;;6.11;81.13;97504.22;4920322;29;20407;-72
2023/12/31 04:25:06;;;;;;;5.22;4.70;;;;;;;6.17;80.57;97521.97;4946745;29;20097;-72
2023/12/31 04:27:31;;;;;;;4.72;4.32;;;;;;;6.14;80.61;97509.06;4915897;29;20027;-72
2023/12/31 04:29:57;;;;;;;4.82;3.78;;;;;;;6.15;80.35;97518.72;4936326;29;20313;-73
2023/12/31 04:32:25;;;;;;;4.95;4.38;;;;;;;6.22;80.76;97524.78;4930602;29;20023;-72
2023/12/31 04:34:50;;;;;;;4.22;3.83;;;;;;;6.20;80.62;97516.19;4952270;29;20031;-72
2023/12/31 04:37:16;;;;;;;4.57;4.13;;;;;;;6.16;80.44;97509.69;4933002;29;20035;-72
2023/12/31 04:39:41;;;;;;;4.80;4.30;;;;;;;6.14;80.56;97507.22;4932105;29;20035;-73
2023/12/31 04:42:06;;;;;;;5.57;4.47;;;;;;;6.02;79.94;97486.91;4935128;29;20069;-71
2023/12/31 04:44:32;;;;;;;4.57;3.83;;;;;;;6.09;80.34;97500.97;4922948;29;20039;-73
2023/12/31 04:46:58;;;;;;;4.35;3.53;;;;;;;6.05;80.69;97491.75;4952002;29;20046;-73
2023/12/31 04:49:23;;;;;;;4.30;3.90;;;;;;;6.10;79.95;97510.59;4920170;29;20069;-73
2023/12/31 04:51:49;;;;;;;4.22;3.92;;;;;;;6.08;79.61;97502.00;4951982;29;20030;-70
2023/12/31 04:54:14;;;;;;;4.68;4.28;;;;;;;6.09;79.95;97503.63;4935533;29;20050;-72
2023/12/31 04:56:39;;;;;;;5.28;4.35;;;;;;;5.96;80.31;97477.13;4917250;29;20115;-71
2023/12/31 04:59:05;;;;;;;5.63;4.18;;;;;;;5.99;80.20;97477.50;4935198;29;20402;-71
2023/12/31 05:01:33;;;;;;;5.15;4.22;;;;;;;6.09;80.16;97479.59;4936255;29;20050;-71
2023/12/31 05:04:00;;;;;;;4.05;3.65;;;;;;;6.06;79.69;97483.53;4920617;29;20127;-71
2023/12/31 05:06:26;;;;;;;6.13;4.07;;;;;;;5.88;79.56;97443.56;4924852;29;20027;-72
2023/12/31 05:08:51;;;;;;;5.43;4.05;;;;;;;6.15;80.61;97475.97;4920327;29;20031;-71
2023/12/31 05:11:16;;;;;;;5.03;4.40;;;;;;;6.19;79.74;97466.41;4933088;29;20024;-72
2023/12/31 05:13:43;;;;;;;4.63;4.07;;;;;;;6.22;79.72;97472.13;4942421;29;20629;-72
2023/12/31 05:16:16;;;;;;;4.80;4.30;;;;;;;6.22;79.83;97455.28;4936981;29;20042;-72
2023/12/31 05:18:43;;;;;;;5.43;4.93;;;;;;;6.25;80.02;97454.81;4936656;29;20070;-72
2023/12/31 05:21:09;;;;;;;5.13;4.50;;;;;;;6.25;80.08;97455.59;4916698;29;20042;-72
2023/12/31 05:23:35;;;;;;;5.20;4.43;;;;;;;6.21;79.52;97432.25;4934715;29;20039;-72
2023/12/31 05:26:00;;;;;;;4.40;4.00;;;;;;;6.37;79.54;97447.56;4935828;29;20119;-72
2023/12/31 05:28:26;;;;;;;4.45;4.05;;;;;;;6.44;79.60;97437.53;4927538;29;20031;-73
2023/12/31 05:30:51;;;;;;;6.70;5.30;;;;;;;6.32;79.39;97417.25;4936521;29;20027;-72
2023/12/31 05:33:16;;;;;;;4.75;4.03;;;;;;;6.43;79.53;97427.91;4950454;28;20043;-72
2023/12/31 05:35:42;;;;;;;5.78;3.95;;;;;;;6.26;79.68;97403.75;4939357;29;20050;-72
2023/12/31 05:38:07;;;;;;;6.05;4.20;;;;;;;6.39;78.87;97424.09;4939512;29;20118;-73
2023/12/31 05:40:33;;;;;;;4.88;3.83;;;;;;;6.32;79.28;97412.72;4939643;29;20558;-72
2023/12/31 05:42:58;;;;;;;5.32;3.95;;;;;;;6.21;78.93;97400.16;4955477;28;20035;-73
2023/12/31 05:45:23;;;;;;;5.28;4.43;;;;;;;6.16;79.39;97397.41;4956478;29;20038;-73
2023/12/31 05:47:49;;;;;;;4.68;3.90;;;;;;;6.23;79.13;97404.22;4939920;29;20097;-72
2023/12/31 05:50:15;;;;;;;4.63;3.83;;;;;;;6.14;78.98;97388.78;4923464;29;20027;-72
2023/12/31 05:52:40;;;;;;;5.43;4.30;;;;;;;6.16;78.61;97402.75;4939362;29;20032;-72
2023/12/31 05:55:06;;;;;;;4.60;4.18;;;;;;;6.10;78.79;97387.66;4939253;29;20127;-72
2023/12/31 05:57:31;;;;;;;4.97;3.90;;;;;;;6.09;78.56;97396.72;4923432;29;20043;-72
2023/12/31 05:59:57;;;;;;;6.50;4.30;;;;;;;5.99;78.48;97377.78;4931407;29;20023;-72
2023/12/31 06:02:23;;;;;;;6.13;4.47;;;;;;;6.11;78.52;97402.66;4923054;29;20043;-72
2023/12/31 06:04:48;;;;;;;6.93;4.45;;;;;;;6.09;78.34;97402.06;4956310;29;20114;-72
2023/12/31 06:07:13;;;;;;;8.00;6.55;;;;;;;6.03;78.62;97403.81;4941999;29;20061;-72
2023/12/31 06:09:39;;;;;;;9.38;6.82;;;;;;;5.98;78.28;97397.53;4946759;29;20027;-72
2023/12/31 06:12:04;;;;;;;9.93;8.93;;;;;;;5.92;78.04;97385.13;4941172;29;20491;-72
2023/12/31 06:14:30;;;;;;;9.52;7.47;;;;;;;5.95;78.69;97387.34;4949974;29;20030;-71
2023/12/31 06:16:55;;;;;;;9.10;6.10;;;;;;;5.85;78.44;97387.09;4954799;29;20415;-71
2023/12/31 06:19:20;;;;;;;6.97;5.93;;;;;;;5.91;77.96;97373.63;4915735;29;20027;-71
2023/12/31 06:21:46;;;;;;;5.00;4.50;;;;;;;5.85;78.05;97368.41;4955674;29;20106;-72
2023/12/31 06:24:11;;;;;;;5.22;4.82;;;;;;;5.90;78.67;97373.88;4931303;29;20465;-72
2023/12/31 06:26:37;;;;;;;6.68;5.30;;;;;;;5.99;78.29;97393.84;4927309;28;20039;-72
2023/12/31 06:29:02;;;;;;;9.23;8.32;;;;;;;6.04;78.11;97396.63;4929411;29;20031;-71
2023/12/31 06:31:28;;;;;;;8.40;7.53;;;;;;;5.91;77.92;97372.81;4922750;29;20034;-72
2023/12/31 06:33:53;;;;;;;9.18;6.50;;;;;;;5.92;78.12;97374.44;4930350;29;20027;-72
2023/12/31 06:36:19;;;;;;;7.05;4.85;;;;;;;5.85;77.89;97353.19;4930620;29;20058;-71
2023/12/31 06:38:44;;;;;;;7.13;4.20;;;;;;;6.01;78.55;97368.50;4923037;29;20039;-72
2023/12/31 06:41:10;;;;;;;6.07;4.30;;;;;;;5.93;77.85;97352.81;4938146;29;20043;-72
2023/12/31 06:43:36;;;;;;;5.63;4.18;;;;;;;5.96;78.58;97336.31;4922091;29;20410;-71
2023/12/31 06:46:05;;;;;;;4.63;4.22;;;;;;;6.14;78.03;97362.06;4912799;29;20039;-74
2023/12/31 06:48:30;;;;;;;5.68;4.57;;;;;;;6.13;78.27;97363.94;4934146;29;20151;-72
2023/12/31 06:50:56;;;;;;;5.65;5.03;;;;;;;6.15;77.97;97363.69;4937977;29;20114;-74
2023/12/31 06:53:21;;;;;;;6.07;4.85;;;;;;;6.13;78.16;97347.09;4924789;29;20505;-74
2023/12/31 06:55:46;;;;;;;5.40;4.32;;;;;;;6.06;77.85;97330.38;4941151;29;20138;-72
2023/12/31 06:58:13;;;;;;;4.70;4.20;;;;;;;6.19;78.14;97348.81;4934723;29;20040;-72
2023/12/31 07:00:38;;;;;;;9.32;7.30;;;;;;;6.23;77.84;97350.75;4919059;29;20158;-72
2023/12/31 07:03:05;;;;;;;4.72;4.22;;;;;;;6.21;78.22;97346.69;4934512;29;20502;-71
2023/12/31 07:05:30;;;;;;;8.80;6.85;;;;;;;6.12;78.17;97337.44;4934157;29;20544;-72
2023/12/31 07:07:56;;;;;;;4.10;3.70;;;;;;;6.10;79.02;97358.25;4937863;29;20095;-72
2023/12/31 07:10:22;;;;;;;5.03;4.30;;;;;;;6.20;78.06;97355.78;4938590;29;20396;-71
2023/12/31 07:12:47;;;;;;;6.25;5.72;;;;;;;6.08;78.23;97336.28;4954024;28;20149;-72
2023/12/31 07:15:13;;;;;;;4.50;4.10;;;;;;;6.25;78.26;97348.66;4924615;28;20034;-72
2023/12/31 07:17:38;;;;;;;5.90;5.40;;;;;;;6.16;78.05;97338.59;4930533;29;20031;-71
2023/12/31 07:20:04;;;;;;;4.85;4.30;;;;;;;6.32;78.08;97359.25;4937557;29;20035;-71
2023/12/31 07:22:29;;;;;;;4.20;3.80;;;;;;;6.33;77.58;97355.50;4937452;29;20435;-72
2023/12/31 07:24:55;;;;;;;7.68;6.97;;;;;;;6.26;77.66;97330.75;4937460;29;20123;-71
2023/12/31 07:27:20;;;;;;;5.78;4.47;;;;;;;6.37;77.56;97351.28;4944517;29;20046;-72
2023/12/31 07:29:45;;;;;;;6.53;4.65;;;;;;;6.36;77.77;97355.03;4954684;29;20491;-71
2023/12/31 07:32:11;;;;;;;5.68;4.65;;;;;;;6.40;77.97;97350.81;4921362;28;20116;-71
2023/12/31 07:34:36;;;;;;;4.40;3.80;;;;;;;6.31;78.50;97330.88;4937292;29;20035;-72
2023/12/31 07:37:02;;;;;;;4.93;4.43;;;;;;;6.32;77.14;97332.50;4919955;29;20086;-72
2023/12/31 07:39:27;;;;;;;4.07;3.67;;;;;;;6.42;78.05;97354.06;4931971;29;20045;-72
2023/12/31 07:41:53;;;;;;;4.25;3.35;;;;;;;6.07;78.44;97321.28;4937119;29;20106;-72
2023/12/31 07:44:20;;;;;;;8.02;7.22;;;;;;;6.20;79.87;97361.13;4937286;29;20063;-72
2023/12/31 07:46:46;;;;;;;6.57;5.97;;;;;;;6.10;78.21;97328.84;4963694;28;20031;-71
2023/12/31 07:49:11;;;;;;;5.38;4.88;;;;;;;6.11;78.59;97333.94;4937022;29;20035;-72
2023/12/31 07:51:36;;;;;;;4.60;4.20;;;;;;;6.00;78.99;97350.00;4931008;29;20503;-72
2023/12/31 07:54:02;;;;;;;6.75;4.78;;;;;;;5.82;79.24;97315.41;4948428;29;20094;-71
2023/12/31 07:56:27;;;;;;;6.85;5.63;;;;;;;5.91;78.54;97327.38;4921017;29;20114;-71
2023/12/31 07:58:52;;;;;;;7.22;5.10;;;;;;;5.96;78.59;97352.34;4939404;29;20036;-72
2023/12/31 08:01:18;;;;;;;6.75;6.05;;;;;;;6.04;78.87;97356.53;4928836;29;20486;-72
2023/12/31 08:03:44;;;;;;;6.18;5.57;;;;;;;5.87;77.92;97335.06;4936624;29;20039;-71
2023/12/31 08:06:10;;;;;;;5.22;4.75;;;;;;;6.01;78.52;97351.66;4936939;29;20105;-71
2023/12/31 08:08:35;;;;;;;5.70;4.65;;;;;;;6.07;78.54;97359.53;4936795;29;20118;-70
2023/12/31 08:11:01;;;;;;;5.63;4.85;;;;;;;5.99;78.93;97327.03;4930214;29;20036;-69
2023/12/31 08:13:26;;;;;;;5.32;4.82;;;;;;;6.17;77.31;97340.22;4943015;28;20039;-72
2023/12/31 08:15:53;;;;;;;6.05;5.50;;;;;;;6.24;77.85;97354.25;4933684;29;20024;-73
2023/12/31 08:18:19;;;;;;;7.70;5.65;;;;;;;6.35;78.27;97353.41;4936928;29;20043;-72
2023/12/31 08:20:44;;;;;;;7.18;5.47;;;;;;;6.29;78.32;97316.94;4943737;29;20321;-72
2023/12/31 08:23:10;;;;;;;6.72;6.00;;;;;;;6.45;77.40;97347.44;4944683;29;20488;-72
2023/12/31 08:25:35;;;;;;;6.85;6.07;;;;;;;6.47;78.51;97330.09;4953615;29;20023;-72
2023/12/31 08:28:01;;;;;;;7.03;6.30;;;;;;;6.48;78.04;97336.25;4944492;29;20043;-72
2023/12/31 08:30:27;;;;;;;6.38;5.63;;;;;;;6.36;77.90;97306.91;4930134;29;20089;-72
2023/12/31 08:32:52;;;;;;;5.63;5.13;;;;;;;6.52;78.34;97326.69;4920268;29;20039;-72
2023/12/31 08:35:17;;;;;;;5.80;5.18;;;;;;;6.59;78.66;97327.38;4938170;29;20035;-72
2023/12/31 08:37:43;;;;;;;6.32;5.15;;;;;;;6.63;77.96;97332.00;4915263;29;20404;-72
2023/12/31 08:40:10;;;;;;;5.05;4.55;;;;;;;6.58;78.45;97313.19;4950558;29;20055;-72
2023/12/31 08:42:35;;;;;;;4.75;4.30;;;;;;;6.63;78.43;97310.59;4936466;29;20696;-72
2023/12/31 08:45:03;;;;;;;4.35;3.95;;;;;;;6.69;77.83;97306.97;4936142;29;20047;-72
2023/12/31 08:47:28;;;;;;;5.38;4.68;;;;;;;6.83;77.48;97323.53;4933013;29;20090;-72
2023/12/31 08:49:54;;;;;;;4.97;4.43;;;;;;;6.65;78.11;97273.72;4921138;29;20028;-72
2023/12/31 08:52:20;;;;;;;5.20;4.57;;;;;;;6.86;77.98;97307.78;4954172;29;20043;-72
2023/12/31 08:54:47;;;;;;;5.45;4.53;;;;;;;6.95;77.64;97308.22;4940335;29;20038;-72
2023/12/31 08:57:12;;;;;;;6.03;5.00;;;;;;;6.85;76.96;97287.44;4938400;29;20074;-72
2023/12/31 08:59:37;;;;;;;6.20;5.60;;;;;;;7.05;76.93;97315.59;4932425;29;20047;-72
2023/12/31 09:02:03;;;;;;;4.97;4.38;;;;;;;7.02;76.99;97294.66;4938311;28;20534;-72
2023/12/31 09:04:34;;;;;;;5.65;4.68;;;;;;;7.14;76.25;97298.06;4923939;29;20446;-72
2023/12/31 09:07:00;;;;;;;5.88;4.45;;;;;;;7.06;76.02;97279.72;4925572;29;20062;-73
2023/12/31 09:09:25;;;;;;;5.18;4.60;;;;;;;7.09;75.94;97276.56;4929342;29;20264;-73
2023/12/31 09:11:51;;;;;;;4.95;4.53;;;;;;;7.11;76.56;97277.13;4939826;29;20046;-71
2023/12/31 09:14:16;;;;;;;5.93;5.00;;;;;;;7.12;75.91;97276.09;4931754;29;20051;-72
2023/12/31 09:16:42;;;;;;;8.88;7.03;;;;;;;7.33;75.19;97296.72;4955671;29;20450;-72
2023/12/31 09:19:07;;;;;;;5.38;4.70;;;;;;;7.21;75.27;97275.41;4939797;29;20024;-72
2023/12/31 09:21:33;;;;;;;4.75;4.25;;;;;;;7.25;75.61;97273.06;4956002;29;20091;-72
2023/12/31 09:23:58;;;;;;;5.10;4.40;;;;;;;7.35;75.29;97286.59;4922660;29;20483;-71
2023/12/31 09:26:23;;;;;;;5.15;4.60;;;;;;;7.22;75.55;97270.88;4924920;29;20054;-73
2023/12/31 09:28:50;;;;;;;5.57;4.95;;;;;;;7.38;74.95;97289.59;4939815;29;20015;-72
2023/12/31 09:31:15;;;;;;;7.60;6.05;;;;;;;7.26;74.61;97272.00;4938116;29;20034;-72
2023/12/31 09:33:40;;;;;;;8.27;7.32;;;;;;;7.45;75.23;97297.44;4920309;29;20499;-72
2023/12/31 09:36:06;;;;;;;9.52;7.18;;;;;;;7.48;74.02;97296.97;4922447;29;20035;-72
2023/12/31 09:38:32;;;;;;;10.68;6.78;;;;;;;7.48;73.82;97296.97;4956465;29;20023;-73
2023/12/31 09:40:57;;;;;;;9.05;7.57;;;;;;;7.47;73.59;97276.56;4955362;29;20050;-73
2023/12/31 09:43:23;;;;;;;8.15;5.47;;;;;;;7.58;72.89;97289.84;4927431;29;20122;-71
2023/12/31 09:45:48;;;;;;;5.20;4.30;;;;;;;7.58;72.54;97267.63;4912660;29;20045;-73
2023/12/31 09:48:15;;;;;;;6.25;5.63;;;;;;;7.77;72.04;97279.66;4932326;29;20098;-73
2023/12/31 09:50:40;;;;;;;3.85;3.55;;;;;;;7.69;71.38;97258.66;4942633;29;20039;-72
2023/12/31 09:53:06;;;;;;;5.20;4.13;;;;;;;7.84;71.05;97264.19;4951651;29;20090;-72
2023/12/31 09:55:34;;;;;;;4.60;4.00;;;;;;;7.85;70.58;97252.44;4909513;29;20039;-73
2023/12/31 09:58:00;;;;;;;4.00;3.22;;;;;;;7.87;70.52;97228.84;4938114;29;20078;-73
2023/12/31 10:00:25;;;;;;;5.68;4.18;;;;;;;7.83;69.79;97211.66;4932692;29;20039;-72
2023/12/31 10:02:53;;;;;;;4.60;3.17;;;;;;;7.89;70.01;97229.41;4919413;29;20125;-73
2023/12/31 10:05:21;;;;;;;3.60;3.28;;;;;;;8.03;69.05;97238.69;4936820;29;20486;-71
2023/12/31 10:07:46;;;;;;;4.63;3.38;;;;;;;8.00;69.07;97228.50;4922992;29;20534;-73
2023/12/31 10:10:14;;;;;;;4.57;3.83;;;;;;;7.97;69.30;97234.34;4938795;29;20039;-73
2023/12/31 10:12:39;;;;;;;4.03;3.58;;;;;;;8.02;69.22;97237.09;4938894;29;20487;-72
2023/12/31 10:15:08;;;;;;;4.93;3.60;;;;;;;8.09;69.22;97242.25;4937997;29;20042;-73
2023/12/31 10:17:33;;;;;;;4.50;3.95;;;;;;;8.16;68.83;97238.31;4907417;29;20034;-72
2023/12/31 10:19:59;;;;;;;4.10;3.70;;;;;;;8.23;68.42;97244.28;4924873;29;20418;-73
2023/12/31 10:22:25;;;;;;;4.13;3.80;;;;;;;8.23;68.27;97244.28;4938624;29;20035;-72
2023/12/31 10:24:51;;;;;;;4.00;3.50;;;;;;;8.20;68.33;97223.34;4916410;29;20044;-73
2023/12/31 10:27:16;;;;;;;4.93;3.70;;;;;;;8.35;67.90;97226.19;4952391;29;20035;-73
2023/12/31 10:29:42;;;;;;;4.63;4.07;;;;;;;8.35;67.89;97226.19;4932247;29;20090;-73
2023/12/31 10:32:07;;;;;;;5.32;4.20;;;;;;;8.27;67.16;97218.59;4940612;29;20118;-73
2023/12/31 10:34:33;;;;;;;3.85;3.50;;;;;;;8.29;66.76;97232.56;4930478;29;20105;-73
2023/12/31 10:37:03;;;;;;;4.30;3.38;;;;;;;8.38;67.20;97224.06;4937246;29;20080;-73
2023/12/31 10:39:31;;;;;;;6.35;3.78;;;;;;;8.35;66.61;97214.66;4931921;29;20133;-73
2023/12/31 10:41:58;;;;;;;4.93;3.92;;;;;;;8.22;66.88;97191.69;4934854;29;20030;-73
2023/12/31 10:44:25;;;;;;;5.30;3.80;;;;;;;8.15;67.10;97169.66;4932164;29;20044;-72
2023/12/31 10:46:52;;;;;;;5.10;4.13;;;;;;;8.31;66.95;97187.53;4927061;29;20023;-72
2023/12/31 10:49:21;;;;;;;8.38;4.50;;;;;;;8.25;66.22;97180.47;4922623;29;20035;-73
2023/12/31 10:51:47;;;;;;;4.53;4.10;;;;;;;8.08;66.49;97166.34;4936011;29;20035;-73
2023/12/31 10:54:35;;;;;;;3.90;3.50;;;;;;;8.07;66.41;97166.63;4937802;29;20113;-73
2023/12/31 10:57:01;;;;;;;4.38;3.72;;;;;;;8.14;66.30;97176.09;4922142;29;20410;-73
2023/12/31 10:59:26;;;;;;;5.32;4.10;;;;;;;8.25;65.96;97174.28;4938037;29;20027;-72
2023/12/31 11:01:53;;;;;;;4.15;3.75;;;;;;;8.18;65.75;97160.28;4933453;29;20409;-73
2023/12/31 11:04:21;;;;;;;4.60;3.80;;;;;;;8.22;65.95;97170.25;4929609;29;20035;-73
2023/12/31 11:06:47;;;;;;;4.55;3.78;;;;;;;8.23;66.17;97158.47;4921766;29;20128;-72
2023/12/31 11:09:13;;;;;;;4.20;3.78;;;;;;;8.22;65.49;97161.38;4932410;29;20031;-72
2023/12/31 11:11:38;;;;;;;5.05;3.60;;;;;;;8.08;65.78;97138.72;4925482;29;20058;-73
2023/12/31 11:14:06;;;;;;;4.60;4.10;;;;;;;8.12;65.80;97129.91;4942398;29;20029;-73
2023/12/31 11:16:47;;;;;;;4.53;4.13;;;;;;;8.05;65.36;97123.94;4932048;29;20035;-73
2023/12/31 11:19:24;;;;;;;5.35;3.92;;;;;;;8.04;65.70;97116.19;4937444;29;20134;-73
2023/12/31 11:22:28;;;;;;;4.88;4.22;;;;;;;8.04;64.87;97127.72;4935163;29;20066;-73
2023/12/31 11:24:57;;;;;;;4.75;4.32;;;;;;;8.16;65.29;97120.31;4928537;29;20130;-73
2023/12/31 11:27:26;;;;;;;4.82;4.15;;;;;;;8.19;65.14;97111.75;4953291;29;20035;-73
2023/12/31 11:29:52;;;;;;;5.85;5.22;;;;;;;8.13;64.77;97103.91;4918402;29;20549;-73
2023/12/31 11:32:19;;;;;;;11.10;8.10;;;;;;;8.18;65.18;97096.72;4928199;28;20029;-73
2023/12/31 11:34:51;;;;;;;7.43;6.13;;;;;;;8.20;64.81;97083.88;4932652;29;20200;-72